sensor_id;sensor_type;location;lat;lon;timestamp;P1;durP1;ratioP1;P2;durP2;ratioP2
13588;SDS011;6865;52.552;13.434;2022-09-01T00:02:28;1.40;;;1.30;;
13588;SDS011;6865;52.552;13.434;2022-09-01T00:04:55;2.17;;;1.27;;
13588;SDS011;6865;52.552;13.434;2022-09-01T00:07:27;2.83;;;1.37;;
13588;SDS011;6865;52.552;13.434;2022-09-01T00:09:57;4.37;;;1.47;;
13588;SDS011;6865;52.552;13.434;2022-09-01T00:12:25;1.43;;;1.03;;
13588;SDS011;6865;52.552;13.434;2022-09-01T00:14:52;2.67;;;1.20;;
13588;SDS011;6865;52.552;13.434;2022-09-01T00:17:19;2.90;;;1.33;;
13588;SDS011;6865;52.552;13.434;2022-09-01T00:19:46;2.83;;;1.30;;
13588;SDS011;6865;52.552;13.434;2022-09-01T00:22:13;3.47;;;1.57;;
13588;SDS011;6865;52.552;13.434;2022-09-01T00:24:39;1.83;;;1.10;;
13588;SDS011;6865;52.552;13.434;2022-09-01T00:27:06;2.80;;;1.30;;
13588;SDS011;6865;52.552;13.434;2022-09-01T00:29:34;2.07;;;1.20;;
13588;SDS011;6865;52.552;13.434;2022-09-01T00:32:01;2.77;;;1.07;;
13588;SDS011;6865;52.552;13.434;2022-09-01T00:34:28;3.63;;;1.20;;
13588;SDS011;6865;52.552;13.434;2022-09-01T00:36:54;1.30;;;1.20;;
13588;SDS011;6865;52.552;13.434;2022-09-01T00:39:21;2.80;;;1.17;;
13588;SDS011;6865;52.552;13.434;2022-09-01T00:41:48;1.23;;;1.00;;
13588;SDS011;6865;52.552;13.434;2022-09-01T00:44:16;2.83;;;1.30;;
13588;SDS011;6865;52.552;13.434;2022-09-01T00:46:49;1.93;;;1.40;;
13588;SDS011;6865;52.552;13.434;2022-09-01T00:51:53;2.27;;;1.90;;
13588;SDS011;6865;52.552;13.434;2022-09-01T00:54:25;2.23;;;1.30;;
13588;SDS011;6865;52.552;13.434;2022-09-01T00:56:55;2.60;;;1.20;;
13588;SDS011;6865;52.552;13.434;2022-09-01T00:59:24;1.50;;;1.20;;
13588;SDS011;6865;52.552;13.434;2022-09-01T01:01:53;1.20;;;1.10;;
13588;SDS011;6865;52.552;13.434;2022-09-01T01:04:21;2.30;;;1.30;;
13588;SDS011;6865;52.552;13.434;2022-09-01T01:06:52;1.23;;;1.10;;
13588;SDS011;6865;52.552;13.434;2022-09-01T01:09:27;1.67;;;1.13;;
13588;SDS011;6865;52.552;13.434;2022-09-01T01:11:58;2.67;;;1.30;;
13588;SDS011;6865;52.552;13.434;2022-09-01T01:14:27;3.30;;;1.30;;
13588;SDS011;6865;52.552;13.434;2022-09-01T01:16:57;2.30;;;1.13;;
13588;SDS011;6865;52.552;13.434;2022-09-01T01:19:41;1.70;;;1.40;;
13588;SDS011;6865;52.552;13.434;2022-09-01T01:22:35;1.53;;;1.17;;
13588;SDS011;6865;52.552;13.434;2022-09-01T01:25:32;1.40;;;1.30;;
13588;SDS011;6865;52.552;13.434;2022-09-01T01:30:51;3.07;;;1.33;;
13588;SDS011;6865;52.552;13.434;2022-09-01T01:33:25;2.97;;;1.30;;
13588;SDS011;6865;52.552;13.434;2022-09-01T01:35:57;1.30;;;1.00;;
13588;SDS011;6865;52.552;13.434;2022-09-01T01:38:26;1.67;;;1.30;;
13588;SDS011;6865;52.552;13.434;2022-09-01T01:40:55;2.03;;;1.40;;
13588;SDS011;6865;52.552;13.434;2022-09-01T01:43:22;2.90;;;1.30;;
13588;SDS011;6865;52.552;13.434;2022-09-01T01:45:50;1.73;;;1.30;;
13588;SDS011;6865;52.552;13.434;2022-09-01T01:48:19;2.70;;;1.30;;
13588;SDS011;6865;52.552;13.434;2022-09-01T01:50:50;2.53;;;1.40;;
13588;SDS011;6865;52.552;13.434;2022-09-01T01:53:18;1.87;;;1.17;;
13588;SDS011;6865;52.552;13.434;2022-09-01T01:55:45;3.17;;;1.30;;
13588;SDS011;6865;52.552;13.434;2022-09-01T01:58:19;2.17;;;1.20;;
13588;SDS011;6865;52.552;13.434;2022-09-01T02:00:48;1.60;;;1.30;;
13588;SDS011;6865;52.552;13.434;2022-09-01T02:03:18;3.30;;;1.50;;
13588;SDS011;6865;52.552;13.434;2022-09-01T02:05:48;2.33;;;1.50;;
13588;SDS011;6865;52.552;13.434;2022-09-01T02:08:16;1.53;;;1.30;;
13588;SDS011;6865;52.552;13.434;2022-09-01T02:10:47;3.80;;;1.40;;
13588;SDS011;6865;52.552;13.434;2022-09-01T02:13:16;4.50;;;1.40;;
13588;SDS011;6865;52.552;13.434;2022-09-01T02:15:47;2.03;;;1.27;;
13588;SDS011;6865;52.552;13.434;2022-09-01T02:18:20;2.13;;;1.60;;
13588;SDS011;6865;52.552;13.434;2022-09-01T02:20:50;5.20;;;1.40;;
13588;SDS011;6865;52.552;13.434;2022-09-01T02:23:18;4.27;;;1.60;;
13588;SDS011;6865;52.552;13.434;2022-09-01T02:25:50;1.97;;;1.30;;
13588;SDS011;6865;52.552;13.434;2022-09-01T02:28:42;1.20;;;1.10;;
13588;SDS011;6865;52.552;13.434;2022-09-01T02:31:10;2.80;;;1.40;;
13588;SDS011;6865;52.552;13.434;2022-09-01T02:33:38;2.20;;;1.20;;
13588;SDS011;6865;52.552;13.434;2022-09-01T02:36:07;2.17;;;1.30;;
13588;SDS011;6865;52.552;13.434;2022-09-01T02:38:38;4.23;;;1.70;;
13588;SDS011;6865;52.552;13.434;2022-09-01T02:41:12;2.37;;;1.33;;
13588;SDS011;6865;52.552;13.434;2022-09-01T02:43:40;2.73;;;1.30;;
13588;SDS011;6865;52.552;13.434;2022-09-01T02:46:09;3.33;;;1.27;;
13588;SDS011;6865;52.552;13.434;2022-09-01T02:48:38;4.17;;;1.60;;
13588;SDS011;6865;52.552;13.434;2022-09-01T02:51:10;2.80;;;1.50;;
13588;SDS011;6865;52.552;13.434;2022-09-01T02:53:39;1.80;;;1.40;;
13588;SDS011;6865;52.552;13.434;2022-09-01T02:56:08;2.23;;;1.20;;
13588;SDS011;6865;52.552;13.434;2022-09-01T02:58:41;1.67;;;1.40;;
13588;SDS011;6865;52.552;13.434;2022-09-01T03:01:16;3.53;;;1.40;;
13588;SDS011;6865;52.552;13.434;2022-09-01T03:03:50;5.00;;;1.80;;
13588;SDS011;6865;52.552;13.434;2022-09-01T03:06:19;5.67;;;1.50;;
13588;SDS011;6865;52.552;13.434;2022-09-01T03:08:49;2.83;;;1.50;;
13588;SDS011;6865;52.552;13.434;2022-09-01T03:11:17;2.33;;;1.53;;
13588;SDS011;6865;52.552;13.434;2022-09-01T03:13:44;4.00;;;1.70;;
13588;SDS011;6865;52.552;13.434;2022-09-01T03:16:11;2.37;;;1.60;;
13588;SDS011;6865;52.552;13.434;2022-09-01T03:18:38;1.83;;;1.50;;
13588;SDS011;6865;52.552;13.434;2022-09-01T03:21:06;3.10;;;1.30;;
13588;SDS011;6865;52.552;13.434;2022-09-01T03:23:33;2.37;;;1.60;;
13588;SDS011;6865;52.552;13.434;2022-09-01T03:26:00;2.80;;;1.40;;
13588;SDS011;6865;52.552;13.434;2022-09-01T03:28:28;2.60;;;1.70;;
13588;SDS011;6865;52.552;13.434;2022-09-01T03:30:55;3.27;;;1.70;;
13588;SDS011;6865;52.552;13.434;2022-09-01T03:33:23;3.27;;;1.87;;
13588;SDS011;6865;52.552;13.434;2022-09-01T03:35:52;4.40;;;1.90;;
13588;SDS011;6865;52.552;13.434;2022-09-01T03:38:19;3.10;;;1.80;;
13588;SDS011;6865;52.552;13.434;2022-09-01T03:40:48;4.13;;;1.80;;
13588;SDS011;6865;52.552;13.434;2022-09-01T03:43:18;2.43;;;1.80;;
13588;SDS011;6865;52.552;13.434;2022-09-01T03:45:48;2.80;;;1.87;;
13588;SDS011;6865;52.552;13.434;2022-09-01T03:48:15;4.20;;;1.70;;
13588;SDS011;6865;52.552;13.434;2022-09-01T03:50:43;3.37;;;1.67;;
13588;SDS011;6865;52.552;13.434;2022-09-01T03:53:12;5.80;;;3.13;;
13588;SDS011;6865;52.552;13.434;2022-09-01T03:55:42;6.13;;;3.70;;
13588;SDS011;6865;52.552;13.434;2022-09-01T03:58:11;3.07;;;2.20;;
13588;SDS011;6865;52.552;13.434;2022-09-01T04:00:41;2.73;;;2.10;;
13588;SDS011;6865;52.552;13.434;2022-09-01T04:03:14;2.17;;;1.80;;
13588;SDS011;6865;52.552;13.434;2022-09-01T04:05:54;2.90;;;1.70;;
13588;SDS011;6865;52.552;13.434;2022-09-01T04:08:21;3.40;;;1.97;;
13588;SDS011;6865;52.552;13.434;2022-09-01T04:10:58;2.87;;;1.90;;
13588;SDS011;6865;52.552;13.434;2022-09-01T04:13:33;3.40;;;1.90;;
13588;SDS011;6865;52.552;13.434;2022-09-01T04:16:01;2.83;;;2.10;;
13588;SDS011;6865;52.552;13.434;2022-09-01T04:18:28;2.77;;;2.10;;
13588;SDS011;6865;52.552;13.434;2022-09-01T04:20:56;4.23;;;2.17;;
13588;SDS011;6865;52.552;13.434;2022-09-01T04:23:25;4.93;;;2.00;;
13588;SDS011;6865;52.552;13.434;2022-09-01T04:26:07;4.27;;;2.00;;
13588;SDS011;6865;52.552;13.434;2022-09-01T04:28:37;3.00;;;1.97;;
13588;SDS011;6865;52.552;13.434;2022-09-01T04:31:07;1.93;;;1.70;;
13588;SDS011;6865;52.552;13.434;2022-09-01T04:33:35;5.60;;;2.30;;
13588;SDS011;6865;52.552;13.434;2022-09-01T04:36:05;2.50;;;1.93;;
13588;SDS011;6865;52.552;13.434;2022-09-01T04:38:39;3.63;;;2.23;;
13588;SDS011;6865;52.552;13.434;2022-09-01T04:41:06;4.97;;;1.97;;
13588;SDS011;6865;52.552;13.434;2022-09-01T04:43:33;3.33;;;2.00;;
13588;SDS011;6865;52.552;13.434;2022-09-01T04:46:00;3.40;;;2.20;;
13588;SDS011;6865;52.552;13.434;2022-09-01T04:48:28;7.00;;;2.63;;
13588;SDS011;6865;52.552;13.434;2022-09-01T04:50:56;3.87;;;2.77;;
13588;SDS011;6865;52.552;13.434;2022-09-01T04:53:24;3.43;;;2.40;;
13588;SDS011;6865;52.552;13.434;2022-09-01T04:55:56;4.73;;;2.33;;
13588;SDS011;6865;52.552;13.434;2022-09-01T04:58:32;3.43;;;2.10;;
13588;SDS011;6865;52.552;13.434;2022-09-01T05:01:00;5.17;;;2.27;;
13588;SDS011;6865;52.552;13.434;2022-09-01T05:03:32;4.43;;;2.20;;
13588;SDS011;6865;52.552;13.434;2022-09-01T05:05:59;2.97;;;2.20;;
13588;SDS011;6865;52.552;13.434;2022-09-01T05:08:28;5.47;;;2.20;;
13588;SDS011;6865;52.552;13.434;2022-09-01T05:11:02;6.00;;;2.60;;
13588;SDS011;6865;52.552;13.434;2022-09-01T05:13:32;4.03;;;2.50;;
13588;SDS011;6865;52.552;13.434;2022-09-01T05:16:02;2.63;;;2.27;;
13588;SDS011;6865;52.552;13.434;2022-09-01T05:18:31;4.20;;;2.13;;
13588;SDS011;6865;52.552;13.434;2022-09-01T05:21:03;6.40;;;2.43;;
13588;SDS011;6865;52.552;13.434;2022-09-01T05:23:34;6.17;;;2.50;;
13588;SDS011;6865;52.552;13.434;2022-09-01T05:26:11;5.67;;;2.33;;
13588;SDS011;6865;52.552;13.434;2022-09-01T05:28:49;3.83;;;2.17;;
13588;SDS011;6865;52.552;13.434;2022-09-01T05:31:22;4.77;;;2.53;;
13588;SDS011;6865;52.552;13.434;2022-09-01T05:33:50;4.60;;;2.50;;
13588;SDS011;6865;52.552;13.434;2022-09-01T05:36:18;5.53;;;2.40;;
13588;SDS011;6865;52.552;13.434;2022-09-01T05:38:46;3.83;;;2.10;;
13588;SDS011;6865;52.552;13.434;2022-09-01T05:41:14;5.83;;;2.73;;
13588;SDS011;6865;52.552;13.434;2022-09-01T05:43:43;3.47;;;2.20;;
13588;SDS011;6865;52.552;13.434;2022-09-01T05:46:23;3.30;;;2.40;;
13588;SDS011;6865;52.552;13.434;2022-09-01T05:48:52;3.83;;;2.20;;
13588;SDS011;6865;52.552;13.434;2022-09-01T05:51:21;3.07;;;2.10;;
13588;SDS011;6865;52.552;13.434;2022-09-01T05:54:09;2.73;;;2.10;;
13588;SDS011;6865;52.552;13.434;2022-09-01T05:56:37;3.90;;;2.07;;
13588;SDS011;6865;52.552;13.434;2022-09-01T05:59:10;4.93;;;2.03;;
13588;SDS011;6865;52.552;13.434;2022-09-01T06:01:54;2.63;;;2.07;;
13588;SDS011;6865;52.552;13.434;2022-09-01T06:04:21;2.33;;;1.83;;
13588;SDS011;6865;52.552;13.434;2022-09-01T06:06:50;4.70;;;2.10;;
13588;SDS011;6865;52.552;13.434;2022-09-01T06:09:37;4.17;;;2.10;;
13588;SDS011;6865;52.552;13.434;2022-09-01T06:12:06;3.57;;;1.90;;
13588;SDS011;6865;52.552;13.434;2022-09-01T06:14:34;4.33;;;1.83;;
13588;SDS011;6865;52.552;13.434;2022-09-01T06:17:01;5.57;;;2.03;;
13588;SDS011;6865;52.552;13.434;2022-09-01T06:19:28;2.63;;;1.80;;
13588;SDS011;6865;52.552;13.434;2022-09-01T06:22:02;4.27;;;1.80;;
13588;SDS011;6865;52.552;13.434;2022-09-01T06:24:29;2.83;;;1.97;;
13588;SDS011;6865;52.552;13.434;2022-09-01T06:26:55;3.37;;;1.80;;
13588;SDS011;6865;52.552;13.434;2022-09-01T06:29:22;5.77;;;1.90;;
13588;SDS011;6865;52.552;13.434;2022-09-01T06:31:49;3.33;;;1.80;;
13588;SDS011;6865;52.552;13.434;2022-09-01T06:34:18;4.37;;;2.53;;
13588;SDS011;6865;52.552;13.434;2022-09-01T06:36:45;4.00;;;2.37;;
13588;SDS011;6865;52.552;13.434;2022-09-01T06:39:14;4.60;;;2.40;;
13588;SDS011;6865;52.552;13.434;2022-09-01T06:41:45;3.97;;;2.70;;
13588;SDS011;6865;52.552;13.434;2022-09-01T06:44:18;9.93;;;3.67;;
13588;SDS011;6865;52.552;13.434;2022-09-01T06:46:48;5.33;;;2.90;;
13588;SDS011;6865;52.552;13.434;2022-09-01T06:49:16;4.53;;;2.40;;
13588;SDS011;6865;52.552;13.434;2022-09-01T06:51:43;6.00;;;2.23;;
13588;SDS011;6865;52.552;13.434;2022-09-01T06:54:14;3.23;;;2.10;;
13588;SDS011;6865;52.552;13.434;2022-09-01T06:56:41;4.13;;;2.10;;
13588;SDS011;6865;52.552;13.434;2022-09-01T06:59:16;4.17;;;2.10;;
13588;SDS011;6865;52.552;13.434;2022-09-01T07:01:43;5.63;;;2.23;;
13588;SDS011;6865;52.552;13.434;2022-09-01T07:04:11;4.03;;;1.90;;
13588;SDS011;6865;52.552;13.434;2022-09-01T07:06:39;2.70;;;1.57;;
13588;SDS011;6865;52.552;13.434;2022-09-01T07:09:27;2.67;;;1.30;;
13588;SDS011;6865;52.552;13.434;2022-09-01T07:12:13;3.07;;;1.30;;
13588;SDS011;6865;52.552;13.434;2022-09-01T07:14:55;1.53;;;1.20;;
13588;SDS011;6865;52.552;13.434;2022-09-01T07:17:49;3.03;;;1.40;;
13588;SDS011;6865;52.552;13.434;2022-09-01T07:20:19;1.33;;;1.20;;
13588;SDS011;6865;52.552;13.434;2022-09-01T07:22:50;2.57;;;1.20;;
13588;SDS011;6865;52.552;13.434;2022-09-01T07:25:36;4.23;;;1.30;;
13588;SDS011;6865;52.552;13.434;2022-09-01T07:28:24;2.70;;;1.20;;
13588;SDS011;6865;52.552;13.434;2022-09-01T07:31:05;1.77;;;1.10;;
13588;SDS011;6865;52.552;13.434;2022-09-01T07:33:54;2.67;;;1.43;;
13588;SDS011;6865;52.552;13.434;2022-09-01T07:36:44;1.48;;;1.13;;
13588;SDS011;6865;52.552;13.434;2022-09-01T07:39:30;4.63;;;1.20;;
13588;SDS011;6865;52.552;13.434;2022-09-01T07:42:15;7.63;;;1.70;;
13588;SDS011;6865;52.552;13.434;2022-09-01T07:45:03;1.57;;;1.30;;
13588;SDS011;6865;52.552;13.434;2022-09-01T07:47:53;2.67;;;1.00;;
13588;SDS011;6865;52.552;13.434;2022-09-01T07:50:20;1.85;;;1.40;;
13588;SDS011;6865;52.552;13.434;2022-09-01T07:53:05;2.10;;;1.10;;
13588;SDS011;6865;52.552;13.434;2022-09-01T07:55:34;2.72;;;1.33;;
13588;SDS011;6865;52.552;13.434;2022-09-01T07:58:01;3.28;;;1.40;;
13588;SDS011;6865;52.552;13.434;2022-09-01T08:00:27;3.97;;;1.20;;
13588;SDS011;6865;52.552;13.434;2022-09-01T08:02:57;3.17;;;1.20;;
13588;SDS011;6865;52.552;13.434;2022-09-01T08:05:24;2.40;;;1.37;;
13588;SDS011;6865;52.552;13.434;2022-09-01T08:07:52;2.50;;;1.27;;
13588;SDS011;6865;52.552;13.434;2022-09-01T08:10:20;3.13;;;1.17;;
13588;SDS011;6865;52.552;13.434;2022-09-01T08:12:47;2.58;;;1.20;;
13588;SDS011;6865;52.552;13.434;2022-09-01T08:15:22;4.03;;;1.25;;
13588;SDS011;6865;52.552;13.434;2022-09-01T08:18:09;3.43;;;1.23;;
13588;SDS011;6865;52.552;13.434;2022-09-01T08:20:39;2.55;;;1.30;;
13588;SDS011;6865;52.552;13.434;2022-09-01T08:23:11;2.47;;;1.47;;
13588;SDS011;6865;52.552;13.434;2022-09-01T08:25:41;2.00;;;1.20;;
13588;SDS011;6865;52.552;13.434;2022-09-01T08:28:09;3.38;;;1.20;;
13588;SDS011;6865;52.552;13.434;2022-09-01T08:30:38;2.92;;;1.00;;
13588;SDS011;6865;52.552;13.434;2022-09-01T08:33:14;2.03;;;1.38;;
13588;SDS011;6865;52.552;13.434;2022-09-01T08:35:41;3.75;;;1.20;;
13588;SDS011;6865;52.552;13.434;2022-09-01T08:38:10;2.53;;;1.10;;
13588;SDS011;6865;52.552;13.434;2022-09-01T08:40:37;2.65;;;1.13;;
13588;SDS011;6865;52.552;13.434;2022-09-01T08:43:41;1.50;;;1.20;;
13588;SDS011;6865;52.552;13.434;2022-09-01T08:46:21;3.50;;;1.23;;
13588;SDS011;6865;52.552;13.434;2022-09-01T08:48:56;2.88;;;1.38;;
13588;SDS011;6865;52.552;13.434;2022-09-01T08:51:47;2.25;;;1.08;;
13588;SDS011;6865;52.552;13.434;2022-09-01T08:54:23;2.72;;;1.27;;
13588;SDS011;6865;52.552;13.434;2022-09-01T08:57:00;7.75;;;1.33;;
13588;SDS011;6865;52.552;13.434;2022-09-01T08:59:36;2.28;;;1.10;;
13588;SDS011;6865;52.552;13.434;2022-09-01T09:02:14;1.27;;;1.08;;
13588;SDS011;6865;52.552;13.434;2022-09-01T09:11:22;1.67;;;1.02;;
13588;SDS011;6865;52.552;13.434;2022-09-01T09:13:56;1.67;;;0.95;;
13588;SDS011;6865;52.552;13.434;2022-09-01T09:16:34;1.83;;;1.10;;
13588;SDS011;6865;52.552;13.434;2022-09-01T09:19:10;1.77;;;0.85;;
13588;SDS011;6865;52.552;13.434;2022-09-01T09:21:58;2.72;;;1.15;;
13588;SDS011;6865;52.552;13.434;2022-09-01T09:24:29;1.98;;;1.00;;
13588;SDS011;6865;52.552;13.434;2022-09-01T09:27:19;2.97;;;1.17;;
13588;SDS011;6865;52.552;13.434;2022-09-01T09:29:49;1.38;;;1.20;;
13588;SDS011;6865;52.552;13.434;2022-09-01T09:32:18;1.05;;;0.88;;
13588;SDS011;6865;52.552;13.434;2022-09-01T09:34:50;2.05;;;1.10;;
13588;SDS011;6865;52.552;13.434;2022-09-01T09:37:25;2.55;;;1.00;;
13588;SDS011;6865;52.552;13.434;2022-09-01T09:40:04;2.83;;;0.90;;
13588;SDS011;6865;52.552;13.434;2022-09-01T09:45:22;2.22;;;1.15;;
13588;SDS011;6865;52.552;13.434;2022-09-01T09:48:29;1.65;;;1.00;;
13588;SDS011;6865;52.552;13.434;2022-09-01T09:51:08;4.47;;;1.05;;
13588;SDS011;6865;52.552;13.434;2022-09-01T09:53:46;1.88;;;0.90;;
13588;SDS011;6865;52.552;13.434;2022-09-01T09:56:22;2.10;;;0.90;;
13588;SDS011;6865;52.552;13.434;2022-09-01T09:58:50;0.85;;;0.70;;
13588;SDS011;6865;52.552;13.434;2022-09-01T10:03:50;2.20;;;0.90;;
13588;SDS011;6865;52.552;13.434;2022-09-01T10:06:30;4.53;;;1.10;;
13588;SDS011;6865;52.552;13.434;2022-09-01T10:09:08;1.40;;;0.90;;
13588;SDS011;6865;52.552;13.434;2022-09-01T10:11:42;1.10;;;0.88;;
13588;SDS011;6865;52.552;13.434;2022-09-01T10:14:14;1.48;;;1.00;;
13588;SDS011;6865;52.552;13.434;2022-09-01T10:17:05;1.83;;;0.93;;
13588;SDS011;6865;52.552;13.434;2022-09-01T10:19:59;1.85;;;0.90;;
13588;SDS011;6865;52.552;13.434;2022-09-01T10:22:32;1.58;;;1.00;;
13588;SDS011;6865;52.552;13.434;2022-09-01T10:25:01;1.80;;;0.88;;
13588;SDS011;6865;52.552;13.434;2022-09-01T10:27:32;1.02;;;0.90;;
13588;SDS011;6865;52.552;13.434;2022-09-01T10:30:26;1.60;;;1.20;;
13588;SDS011;6865;52.552;13.434;2022-09-01T10:32:53;3.25;;;1.92;;
13588;SDS011;6865;52.552;13.434;2022-09-01T10:35:33;2.45;;;0.80;;
13588;SDS011;6865;52.552;13.434;2022-09-01T10:38:07;2.10;;;1.50;;
13588;SDS011;6865;52.552;13.434;2022-09-01T10:43:22;0.85;;;0.80;;
13588;SDS011;6865;52.552;13.434;2022-09-01T10:45:50;2.28;;;1.00;;
13588;SDS011;6865;52.552;13.434;2022-09-01T10:48:30;2.28;;;0.98;;
13588;SDS011;6865;52.552;13.434;2022-09-01T10:53:47;2.05;;;1.10;;
13588;SDS011;6865;52.552;13.434;2022-09-01T10:56:21;2.03;;;1.20;;
13588;SDS011;6865;52.552;13.434;2022-09-01T11:15:43;5.47;;;1.00;;
13588;SDS011;6865;52.552;13.434;2022-09-01T11:18:13;1.73;;;1.20;;
13588;SDS011;6865;52.552;13.434;2022-09-01T11:20:52;2.05;;;1.20;;
13588;SDS011;6865;52.552;13.434;2022-09-01T11:23:28;1.40;;;1.08;;
13588;SDS011;6865;52.552;13.434;2022-09-01T11:28:45;2.42;;;0.80;;
13588;SDS011;6865;52.552;13.434;2022-09-01T11:31:23;1.27;;;0.90;;
13588;SDS011;6865;52.552;13.434;2022-09-01T11:33:58;0.82;;;0.80;;
13588;SDS011;6865;52.552;13.434;2022-09-01T11:36:46;2.78;;;0.90;;
13588;SDS011;6865;52.552;13.434;2022-09-01T11:39:33;2.67;;;0.90;;
13588;SDS011;6865;52.552;13.434;2022-09-01T11:42:47;1.88;;;0.90;;
13588;SDS011;6865;52.552;13.434;2022-09-01T11:45:04;2.65;;;0.80;;
13588;SDS011;6865;52.552;13.434;2022-09-01T11:48:08;1.48;;;1.00;;
13588;SDS011;6865;52.552;13.434;2022-09-01T11:50:36;1.67;;;0.90;;
13588;SDS011;6865;52.552;13.434;2022-09-01T11:53:07;2.83;;;0.95;;
13588;SDS011;6865;52.552;13.434;2022-09-01T11:55:40;3.58;;;1.27;;
13588;SDS011;6865;52.552;13.434;2022-09-01T12:00:54;2.10;;;1.55;;
13588;SDS011;6865;52.552;13.434;2022-09-01T12:03:26;1.45;;;0.77;;
13588;SDS011;6865;52.552;13.434;2022-09-01T12:05:56;1.40;;;1.20;;
13588;SDS011;6865;52.552;13.434;2022-09-01T12:08:27;1.13;;;0.95;;
13588;SDS011;6865;52.552;13.434;2022-09-01T12:11:04;1.63;;;0.90;;
13588;SDS011;6865;52.552;13.434;2022-09-01T12:13:53;5.25;;;1.98;;
13588;SDS011;6865;52.552;13.434;2022-09-01T12:16:37;2.35;;;1.30;;
13588;SDS011;6865;52.552;13.434;2022-09-01T12:19:07;2.88;;;1.10;;
13588;SDS011;6865;52.552;13.434;2022-09-01T12:21:54;1.13;;;1.02;;
13588;SDS011;6865;52.552;13.434;2022-09-01T12:24:27;1.42;;;1.00;;
13588;SDS011;6865;52.552;13.434;2022-09-01T12:26:59;1.65;;;1.00;;
13588;SDS011;6865;52.552;13.434;2022-09-01T12:29:27;1.00;;;0.70;;
13588;SDS011;6865;52.552;13.434;2022-09-01T12:31:57;0.98;;;0.80;;
13588;SDS011;6865;52.552;13.434;2022-09-01T12:34:27;2.35;;;1.10;;
13588;SDS011;6865;52.552;13.434;2022-09-01T12:39:51;1.35;;;0.93;;
13588;SDS011;6865;52.552;13.434;2022-09-01T12:44:50;1.63;;;1.10;;
13588;SDS011;6865;52.552;13.434;2022-09-01T12:50:31;2.55;;;1.17;;
13588;SDS011;6865;52.552;13.434;2022-09-01T12:52:58;2.13;;;0.90;;
13588;SDS011;6865;52.552;13.434;2022-09-01T12:55:31;1.42;;;0.90;;
13588;SDS011;6865;52.552;13.434;2022-09-01T12:58:19;1.17;;;1.08;;
13588;SDS011;6865;52.552;13.434;2022-09-01T13:00:55;1.08;;;0.75;;
13588;SDS011;6865;52.552;13.434;2022-09-01T13:03:41;2.58;;;0.88;;
13588;SDS011;6865;52.552;13.434;2022-09-01T13:06:07;1.77;;;0.88;;
13588;SDS011;6865;52.552;13.434;2022-09-01T13:08:35;1.30;;;0.80;;
13588;SDS011;6865;52.552;13.434;2022-09-01T13:13:31;3.08;;;0.93;;
13588;SDS011;6865;52.552;13.434;2022-09-01T13:16:00;1.38;;;0.90;;
13588;SDS011;6865;52.552;13.434;2022-09-01T13:18:39;1.63;;;1.10;;
13588;SDS011;6865;52.552;13.434;2022-09-01T13:21:27;2.65;;;1.40;;
13588;SDS011;6865;52.552;13.434;2022-09-01T13:23:55;3.58;;;1.10;;
13588;SDS011;6865;52.552;13.434;2022-09-01T13:26:25;2.25;;;0.98;;
13588;SDS011;6865;52.552;13.434;2022-09-01T13:28:53;1.40;;;1.00;;
13588;SDS011;6865;52.552;13.434;2022-09-01T13:31:19;5.10;;;1.10;;
13588;SDS011;6865;52.552;13.434;2022-09-01T13:33:54;1.33;;;0.90;;
13588;SDS011;6865;52.552;13.434;2022-09-01T13:36:41;3.80;;;1.10;;
13588;SDS011;6865;52.552;13.434;2022-09-01T13:39:13;1.00;;;0.90;;
13588;SDS011;6865;52.552;13.434;2022-09-01T13:41:40;1.20;;;1.00;;
13588;SDS011;6865;52.552;13.434;2022-09-01T13:44:07;2.17;;;1.02;;
13588;SDS011;6865;52.552;13.434;2022-09-01T13:46:35;1.20;;;0.93;;
13588;SDS011;6865;52.552;13.434;2022-09-01T13:49:22;1.25;;;0.90;;
13588;SDS011;6865;52.552;13.434;2022-09-01T13:52:08;0.93;;;0.90;;
13588;SDS011;6865;52.552;13.434;2022-09-01T13:54:35;1.85;;;1.23;;
13588;SDS011;6865;52.552;13.434;2022-09-01T13:57:02;1.48;;;0.93;;
13588;SDS011;6865;52.552;13.434;2022-09-01T13:59:28;2.35;;;0.98;;
13588;SDS011;6865;52.552;13.434;2022-09-01T14:01:55;4.93;;;0.98;;
13588;SDS011;6865;52.552;13.434;2022-09-01T14:04:22;0.95;;;0.80;;
13588;SDS011;6865;52.552;13.434;2022-09-01T14:06:49;1.58;;;0.90;;
13588;SDS011;6865;52.552;13.434;2022-09-01T14:09:16;4.20;;;1.00;;
13588;SDS011;6865;52.552;13.434;2022-09-01T14:11:43;5.38;;;1.50;;
13588;SDS011;6865;52.552;13.434;2022-09-01T14:14:10;2.47;;;1.30;;
13588;SDS011;6865;52.552;13.434;2022-09-01T14:16:36;3.17;;;1.60;;
13588;SDS011;6865;52.552;13.434;2022-09-01T14:19:03;2.08;;;1.20;;
13588;SDS011;6865;52.552;13.434;2022-09-01T14:21:30;2.08;;;1.52;;
13588;SDS011;6865;52.552;13.434;2022-09-01T14:23:57;2.17;;;1.02;;
13588;SDS011;6865;52.552;13.434;2022-09-01T14:26:25;1.30;;;1.08;;
13588;SDS011;6865;52.552;13.434;2022-09-01T14:28:53;4.22;;;1.85;;
13588;SDS011;6865;52.552;13.434;2022-09-01T14:31:20;2.45;;;0.95;;
13588;SDS011;6865;52.552;13.434;2022-09-01T14:33:47;5.63;;;1.30;;
13588;SDS011;6865;52.552;13.434;2022-09-01T14:36:19;1.98;;;1.13;;
13588;SDS011;6865;52.552;13.434;2022-09-01T14:38:49;1.30;;;1.02;;
13588;SDS011;6865;52.552;13.434;2022-09-01T14:41:17;2.50;;;0.90;;
13588;SDS011;6865;52.552;13.434;2022-09-01T14:43:48;1.02;;;0.93;;
13588;SDS011;6865;52.552;13.434;2022-09-01T14:46:17;2.55;;;1.08;;
13588;SDS011;6865;52.552;13.434;2022-09-01T14:48:45;2.00;;;1.00;;
13588;SDS011;6865;52.552;13.434;2022-09-01T14:51:21;1.13;;;1.00;;
13588;SDS011;6865;52.552;13.434;2022-09-01T14:53:51;1.17;;;1.05;;
13588;SDS011;6865;52.552;13.434;2022-09-01T14:56:18;2.78;;;1.10;;
13588;SDS011;6865;52.552;13.434;2022-09-01T14:58:47;0.80;;;0.80;;
13588;SDS011;6865;52.552;13.434;2022-09-01T15:01:15;0.93;;;0.88;;
13588;SDS011;6865;52.552;13.434;2022-09-01T15:03:59;3.17;;;0.90;;
13588;SDS011;6865;52.552;13.434;2022-09-01T15:06:26;2.42;;;0.95;;
13588;SDS011;6865;52.552;13.434;2022-09-01T15:08:53;3.35;;;1.45;;
13588;SDS011;6865;52.552;13.434;2022-09-01T15:11:19;1.77;;;0.82;;
13588;SDS011;6865;52.552;13.434;2022-09-01T15:13:46;1.10;;;1.00;;
13588;SDS011;6865;52.552;13.434;2022-09-01T15:16:18;1.80;;;1.00;;
13588;SDS011;6865;52.552;13.434;2022-09-01T15:18:47;1.77;;;1.10;;
13588;SDS011;6865;52.552;13.434;2022-09-01T15:21:19;1.42;;;1.13;;
13588;SDS011;6865;52.552;13.434;2022-09-01T15:23:50;3.22;;;1.02;;
13588;SDS011;6865;52.552;13.434;2022-09-01T15:26:19;1.52;;;1.00;;
13588;SDS011;6865;52.552;13.434;2022-09-01T15:28:47;2.03;;;1.20;;
13588;SDS011;6865;52.552;13.434;2022-09-01T15:31:15;3.15;;;1.10;;
13588;SDS011;6865;52.552;13.434;2022-09-01T15:33:54;3.33;;;1.35;;
13588;SDS011;6865;52.552;13.434;2022-09-01T15:36:23;1.77;;;1.00;;
13588;SDS011;6865;52.552;13.434;2022-09-01T15:38:51;1.70;;;1.00;;
13588;SDS011;6865;52.552;13.434;2022-09-01T15:41:18;1.20;;;1.10;;
13588;SDS011;6865;52.552;13.434;2022-09-01T15:43:49;2.38;;;1.30;;
13588;SDS011;6865;52.552;13.434;2022-09-01T15:46:17;1.42;;;1.23;;
13588;SDS011;6865;52.552;13.434;2022-09-01T15:48:44;1.58;;;1.00;;
13588;SDS011;6865;52.552;13.434;2022-09-01T15:53:44;1.55;;;0.90;;
13588;SDS011;6865;52.552;13.434;2022-09-01T15:56:11;3.45;;;1.10;;
13588;SDS011;6865;52.552;13.434;2022-09-01T15:58:37;1.90;;;1.10;;
13588;SDS011;6865;52.552;13.434;2022-09-01T16:01:24;1.35;;;1.20;;
13588;SDS011;6865;52.552;13.434;2022-09-01T16:03:52;1.25;;;1.08;;
13588;SDS011;6865;52.552;13.434;2022-09-01T16:06:20;2.03;;;0.85;;
13588;SDS011;6865;52.552;13.434;2022-09-01T16:08:47;2.05;;;1.30;;
13588;SDS011;6865;52.552;13.434;2022-09-01T16:11:14;3.58;;;1.50;;
13588;SDS011;6865;52.552;13.434;2022-09-01T16:13:41;3.22;;;2.00;;
13588;SDS011;6865;52.552;13.434;2022-09-01T16:16:11;4.32;;;2.50;;
13588;SDS011;6865;52.552;13.434;2022-09-01T16:19:04;3.72;;;2.30;;